createdAt,value
2023-02-03T00:02:15.763Z,-2.77
2023-02-03T00:04:43.325Z,-2.88
2023-02-03T00:07:13.621Z,-2.72
2023-02-03T00:09:41.900Z,-2.33
2023-02-03T00:12:09.511Z,-2.13
2023-02-03T00:14:38.146Z,-2.00
2023-02-03T00:17:06.000Z,-1.95
2023-02-03T00:19:33.502Z,-2.08
2023-02-03T00:22:00.770Z,-2.11
2023-02-03T00:24:28.723Z,-1.86
2023-02-03T00:26:56.065Z,-1.88
2023-02-03T00:29:26.105Z,-1.98
2023-02-03T00:31:54.622Z,-1.98
2023-02-03T00:34:22.419Z,-2.19
2023-02-03T00:36:49.768Z,-2.18
2023-02-03T00:39:17.366Z,-2.32
2023-02-03T00:41:44.880Z,-2.46
2023-02-03T00:44:12.411Z,-2.50
2023-02-03T00:46:40.132Z,-2.15
2023-02-03T00:49:08.119Z,-2.52
2023-02-03T00:51:35.410Z,-2.51
2023-02-03T00:54:03.031Z,-2.46
2023-02-03T00:56:31.309Z,-2.56
2023-02-03T00:58:58.836Z,-2.57
2023-02-03T01:01:27.272Z,-2.69
2023-02-03T01:03:56.246Z,-2.54
2023-02-03T01:06:24.092Z,-2.35
2023-02-03T01:08:52.171Z,-2.34
2023-02-03T01:11:22.637Z,-2.27
2023-02-03T01:13:52.019Z,-2.10
2023-02-03T01:16:21.221Z,-2.32
2023-02-03T01:18:49.455Z,-2.34
2023-02-03T01:21:20.340Z,-2.43
2023-02-03T01:23:48.562Z,-2.43
2023-02-03T01:26:18.731Z,-2.44
2023-02-03T01:28:56.795Z,-2.31
2023-02-03T01:31:26.973Z,-2.31
2023-02-03T01:33:55.652Z,-2.20
2023-02-03T01:36:25.727Z,-2.19
2023-02-03T01:38:53.734Z,-2.15
2023-02-03T01:41:26.015Z,-1.90
2023-02-03T01:43:55.581Z,-1.77
2023-02-03T01:46:26.091Z,-1.71
2023-02-03T01:48:56.904Z,-1.94
2023-02-03T01:51:24.920Z,-1.93
2023-02-03T01:53:54.777Z,-1.90
2023-02-03T01:56:22.634Z,-1.81
2023-02-03T01:58:51.167Z,-1.68
2023-02-03T02:01:19.724Z,-1.77
2023-02-03T02:03:54.629Z,-1.91
2023-02-03T02:06:21.926Z,-1.98
2023-02-03T02:08:52.517Z,-2.07
2023-02-03T02:11:21.568Z,-2.31
2023-02-03T02:13:52.525Z,-2.20
2023-02-03T02:16:26.959Z,-2.16
2023-02-03T02:19:06.783Z,-2.21
2023-02-03T02:21:52.535Z,-2.27
2023-02-03T02:24:42.664Z,-2.36
2023-02-03T02:27:28.129Z,-2.30
2023-02-03T02:30:09.492Z,-2.12
2023-02-03T02:32:42.733Z,-1.85
2023-02-03T02:36:06.031Z,-1.90
2023-02-03T02:38:46.653Z,-1.97
2023-02-03T02:41:30.150Z,-1.83
2023-02-03T02:44:08.014Z,-1.85
2023-02-03T02:46:48.644Z,-1.75
2023-02-03T02:49:35.954Z,-1.63
2023-02-03T02:52:07.511Z,-1.69
2023-02-03T02:54:41.023Z,-1.79
2023-02-03T02:57:13.595Z,-1.69
2023-02-03T02:59:40.874Z,-1.67
2023-02-03T03:02:11.013Z,-1.53
2023-02-03T03:04:40.752Z,-1.62
2023-02-03T03:07:29.953Z,-1.69
2023-02-03T03:10:02.573Z,-1.69
2023-02-03T03:12:48.291Z,-1.75
2023-02-03T03:15:24.564Z,-1.68
2023-02-03T03:18:00.541Z,-1.90
2023-02-03T03:20:28.878Z,-1.65
2023-02-03T03:23:10.804Z,-1.62
2023-02-03T03:25:46.117Z,-1.70
2023-02-03T03:28:20.913Z,-1.61
2023-02-03T03:30:48.334Z,-1.60
2023-02-03T03:33:16.244Z,-1.46
2023-02-03T03:35:55.812Z,-1.59
2023-02-03T03:38:37.754Z,-1.70
2023-02-03T03:41:23.165Z,-1.58
2023-02-03T03:43:53.864Z,-1.61
2023-02-03T03:46:27.414Z,-1.52
2023-02-03T03:48:59.198Z,-1.56
2023-02-03T03:51:40.456Z,-1.48
2023-02-03T03:54:13.128Z,-1.45
2023-02-03T03:57:03.420Z,-1.56
2023-02-03T03:59:35.833Z,-1.56
2023-02-03T04:02:05.120Z,-1.54
2023-02-03T04:04:36.680Z,-1.38
2023-02-03T04:07:03.927Z,-1.46
2023-02-03T04:09:31.751Z,-1.47
2023-02-03T04:12:01.848Z,-1.69
2023-02-03T04:14:30.628Z,-1.80
2023-02-03T04:16:58.717Z,-1.70
2023-02-03T04:19:26.609Z,-1.57
2023-02-03T04:21:53.892Z,-1.81
2023-02-03T04:24:21.500Z,-1.66
2023-02-03T04:26:48.812Z,-1.60
2023-02-03T04:29:16.303Z,-1.56
2023-02-03T04:31:43.553Z,-1.58
2023-02-03T04:34:11.164Z,-1.59
2023-02-03T04:36:38.605Z,-1.56
2023-02-03T04:39:06.130Z,-1.56
2023-02-03T04:41:33.441Z,-1.43
2023-02-03T04:44:01.291Z,-1.40
2023-02-03T04:46:28.612Z,-1.46
2023-02-03T04:48:56.114Z,-1.65
2023-02-03T04:51:23.349Z,-1.42
2023-02-03T04:53:51.281Z,-1.45
2023-02-03T04:56:18.490Z,-1.52
2023-02-03T04:58:46.006Z,-1.51
2023-02-03T05:01:13.332Z,-1.67
2023-02-03T05:03:40.928Z,-1.54
2023-02-03T05:06:08.290Z,-1.84
2023-02-03T05:08:35.819Z,-1.89
2023-02-03T05:11:04.255Z,-2.05
2023-02-03T05:13:32.752Z,-2.01
2023-02-03T05:16:00.041Z,-2.32
2023-02-03T05:18:27.591Z,-2.44
2023-02-03T05:20:54.829Z,-2.43
2023-02-03T05:23:22.457Z,-2.59
2023-02-03T05:25:49.728Z,-2.62
2023-02-03T05:28:17.304Z,-2.69
2023-02-03T05:30:44.708Z,-2.61
2023-02-03T05:33:12.199Z,-2.62
2023-02-03T05:35:39.428Z,-2.64
2023-02-03T05:38:07.531Z,-2.76
2023-02-03T05:40:53.448Z,-2.56
2023-02-03T05:43:20.942Z,-2.45
2023-02-03T05:45:48.211Z,-2.39
2023-02-03T05:48:15.776Z,-2.22
2023-02-03T05:50:43.115Z,-2.54
2023-02-03T05:53:10.806Z,-2.56
2023-02-03T05:55:38.309Z,-2.53
2023-02-03T05:58:05.819Z,-2.45
2023-02-03T06:00:33.289Z,-2.70
2023-02-03T06:03:02.711Z,-2.52
2023-02-03T06:05:32.153Z,-2.53
2023-02-03T06:08:00.423Z,-2.52
2023-02-03T06:10:28.163Z,-2.58
2023-02-03T06:12:55.933Z,-2.88
2023-02-03T06:15:23.264Z,-2.75
2023-02-03T06:17:50.955Z,-2.70
2023-02-03T06:20:20.566Z,-2.68
2023-02-03T06:22:48.152Z,-2.80
2023-02-03T06:25:15.541Z,-2.67
2023-02-03T06:27:43.047Z,-2.71
2023-02-03T06:30:11.651Z,-2.74
2023-02-03T06:32:39.156Z,-2.60
2023-02-03T06:35:06.782Z,-2.75
2023-02-03T06:37:35.763Z,-2.74
2023-02-03T06:40:04.496Z,-2.78
2023-02-03T06:42:32.098Z,-2.75
2023-02-03T06:44:59.671Z,-2.75
2023-02-03T06:47:27.359Z,-2.78
2023-02-03T06:49:54.652Z,-2.64
2023-02-03T06:52:22.226Z,-2.74
2023-02-03T06:54:49.500Z,-2.62
2023-02-03T06:57:17.185Z,-2.64
2023-02-03T06:59:44.409Z,-2.74
2023-02-03T07:02:12.233Z,-2.67
2023-02-03T07:04:39.601Z,-2.74
2023-02-03T07:07:07.189Z,-2.59
2023-02-03T07:09:34.415Z,-2.53
2023-02-03T07:12:01.968Z,-2.62
2023-02-03T07:14:31.152Z,-2.61
2023-02-03T07:16:58.772Z,-2.60
2023-02-03T07:19:26.112Z,-2.55
2023-02-03T07:21:53.751Z,-2.66
2023-02-03T07:24:21.018Z,-2.53
2023-02-03T07:26:48.599Z,-2.55
2023-02-03T07:29:15.885Z,-2.49
2023-02-03T07:31:43.560Z,-2.39
2023-02-03T07:34:10.908Z,-2.34
2023-02-03T07:36:38.487Z,-2.41
2023-02-03T07:39:05.775Z,-2.42
2023-02-03T07:41:33.459Z,-2.26
2023-02-03T07:44:00.772Z,-2.30
2023-02-03T07:46:28.414Z,-2.26
2023-02-03T07:48:55.722Z,-2.23
2023-02-03T07:51:23.271Z,-2.40
2023-02-03T07:53:50.517Z,-2.27
2023-02-03T07:56:18.050Z,-2.40
2023-02-03T07:58:45.431Z,-2.27
2023-02-03T08:01:15.616Z,-2.14
2023-02-03T08:03:43.733Z,-2.25
2023-02-03T08:06:11.236Z,-2.06
2023-02-03T08:08:38.459Z,-2.08
2023-02-03T08:11:05.986Z,-2.15
2023-02-03T08:13:33.491Z,-2.05
2023-02-03T08:16:01.231Z,-2.11
2023-02-03T08:18:30.221Z,-1.99
2023-02-03T08:20:59.269Z,-1.79
2023-02-03T08:23:26.543Z,-1.78
2023-02-03T08:25:54.192Z,-1.84
2023-02-03T08:28:21.703Z,-1.95
2023-02-03T08:30:49.474Z,-1.78
2023-02-03T08:33:16.895Z,-1.71
2023-02-03T08:35:49.696Z,-1.65
2023-02-03T08:38:17.634Z,-1.66
2023-02-03T08:40:45.186Z,-1.77
2023-02-03T08:43:12.484Z,-1.78
2023-02-03T08:45:41.083Z,-1.52
2023-02-03T08:48:08.721Z,-1.72
2023-02-03T08:50:36.501Z,-1.64
2023-02-03T08:53:03.730Z,-1.41
2023-02-03T08:55:31.257Z,-1.46
2023-02-03T08:57:58.539Z,-1.52
2023-02-03T09:00:26.831Z,-1.26
2023-02-03T09:02:54.294Z,-1.31
2023-02-03T09:05:22.454Z,-1.37
2023-02-03T09:07:49.720Z,-1.58
2023-02-03T09:10:17.299Z,-1.43
2023-02-03T09:12:44.500Z,-1.53
2023-02-03T09:15:12.036Z,-1.54
2023-02-03T09:17:39.315Z,-1.47
2023-02-03T09:20:07.563Z,-1.51
2023-02-03T09:22:34.864Z,-1.40
2023-02-03T09:25:02.555Z,-1.61
2023-02-03T09:27:29.782Z,-1.59
2023-02-03T09:29:58.623Z,-1.39
2023-02-03T09:32:25.864Z,-1.54
2023-02-03T09:34:53.363Z,-1.22
2023-02-03T09:37:20.606Z,-1.36
2023-02-03T09:39:48.970Z,-1.24
2023-02-03T09:42:55.702Z,-1.61
2023-02-03T09:45:27.271Z,-1.50
2023-02-03T09:47:59.918Z,-1.48
2023-02-03T09:50:32.010Z,-1.43
2023-02-03T09:53:03.687Z,-1.48
2023-02-03T09:55:39.868Z,-1.53
2023-02-03T09:58:12.796Z,-1.44
2023-02-03T10:00:44.754Z,-1.32
2023-02-03T10:03:22.962Z,-1.43
2023-02-03T10:06:02.724Z,-1.50
2023-02-03T10:09:00.904Z,-1.51
2023-02-03T10:11:37.650Z,-1.27
2023-02-03T10:14:23.170Z,-1.41
2023-02-03T10:16:59.758Z,-1.77
2023-02-03T10:19:54.052Z,-1.66
2023-02-03T10:22:28.193Z,-1.67
2023-02-03T10:25:12.260Z,-1.78
2023-02-03T10:27:42.648Z,-1.65
2023-02-03T10:30:23.645Z,-1.65
2023-02-03T10:33:09.168Z,-1.54
2023-02-03T10:35:55.290Z,-1.68
2023-02-03T10:38:46.079Z,-1.75
2023-02-03T10:41:15.182Z,-1.69
2023-02-03T10:43:48.629Z,-1.82
2023-02-03T10:46:17.589Z,-1.92
2023-02-03T10:48:45.235Z,-1.76
2023-02-03T10:51:21.899Z,-1.68
2023-02-03T10:53:53.396Z,-1.90
2023-02-03T10:56:41.095Z,-1.65
2023-02-03T10:59:29.638Z,-1.76
2023-02-03T11:01:57.326Z,-1.76
2023-02-03T11:04:31.087Z,-1.80
2023-02-03T11:07:03.880Z,-1.64
2023-02-03T11:09:36.001Z,-1.73
2023-02-03T11:12:18.252Z,-1.34
2023-02-03T11:14:51.110Z,-1.12
2023-02-03T11:17:23.589Z,0.11
2023-02-03T11:19:54.036Z,-0.55
2023-02-03T11:22:36.282Z,-0.59
2023-02-03T11:25:16.659Z,-0.74
2023-02-03T11:27:44.326Z,-0.69
2023-02-03T11:30:12.011Z,-0.29
2023-02-03T11:32:41.802Z,-0.42
2023-02-03T11:35:22.914Z,-0.68
2023-02-03T11:37:56.384Z,-0.91
2023-02-03T11:40:27.449Z,-1.10
2023-02-03T11:42:57.844Z,-1.22
2023-02-03T11:45:52.243Z,-1.14
2023-02-03T11:48:33.345Z,-0.62
2023-02-03T11:51:03.977Z,-0.40
2023-02-03T11:54:01.706Z,-0.62
2023-02-03T11:56:35.042Z,-0.56
2023-02-03T11:59:14.461Z,-0.61
2023-02-03T12:02:05.777Z,-0.75
2023-02-03T12:04:54.590Z,-0.51
2023-02-03T12:07:31.854Z,-0.63
2023-02-03T12:10:08.248Z,-0.69
2023-02-03T12:12:47.939Z,-0.41
2023-02-03T12:15:47.124Z,-0.20
2023-02-03T12:18:26.990Z,-0.15
2023-02-03T12:21:31.845Z,-0.24
2023-02-03T12:24:14.487Z,-0.29
2023-02-03T12:26:50.856Z,0.27
2023-02-03T12:29:24.941Z,-146.14
2023-02-03T12:32:14.588Z,5.29
2023-02-03T12:34:53.963Z,-146.14
2023-02-03T12:37:30.745Z,-146.14
2023-02-03T12:40:15.394Z,-146.14
2023-02-03T12:42:57.815Z,-146.14
2023-02-03T12:45:36.946Z,-146.14
2023-02-03T12:48:59.815Z,-146.14
2023-02-03T12:51:45.279Z,-146.14
2023-02-03T12:54:51.301Z,-146.14
2023-02-03T12:57:27.239Z,-146.14
2023-02-03T13:00:07.880Z,-146.14
2023-02-03T13:02:49.782Z,-146.14
2023-02-03T13:05:55.985Z,-146.14
2023-02-03T13:08:36.271Z,-146.14
2023-02-03T13:11:41.059Z,-146.14
2023-02-03T13:14:33.237Z,-146.14
2023-02-03T13:17:25.133Z,-146.14
2023-02-03T13:19:56.517Z,-146.14
2023-02-03T13:23:23.280Z,-146.14
2023-02-03T13:26:12.526Z,-146.14
2023-02-03T13:29:21.622Z,-146.14
2023-02-03T13:32:21.106Z,-146.14
2023-02-03T13:35:52.841Z,-146.14
2023-02-03T13:39:37.012Z,-146.14
2023-02-03T13:43:36.928Z,-146.14
2023-02-03T13:46:09.513Z,-146.14
2023-02-03T13:48:37.251Z,-146.14
2023-02-03T13:51:18.855Z,-146.14
2023-02-03T13:53:48.979Z,-146.14
2023-02-03T13:56:34.981Z,-146.14
2023-02-03T13:59:14.400Z,-146.14
2023-02-03T14:01:42.925Z,-146.14
2023-02-03T14:04:31.907Z,-146.14
2023-02-03T14:07:02.960Z,-146.14
2023-02-03T14:09:35.785Z,-146.14
2023-02-03T14:12:15.648Z,-146.14
2023-02-03T14:15:04.517Z,-146.14
2023-02-03T14:17:35.183Z,-146.14
2023-02-03T14:20:05.815Z,-146.14
2023-02-03T14:22:33.496Z,-146.14
2023-02-03T14:25:07.047Z,-146.14
2023-02-03T14:27:35.014Z,-146.14
2023-02-03T14:30:13.673Z,-146.14
2023-02-03T14:33:02.953Z,-146.14
2023-02-03T14:35:35.067Z,-146.14
2023-02-03T14:38:06.467Z,-146.14
2023-02-03T14:40:56.983Z,-146.14
2023-02-03T14:43:51.487Z,-146.14
2023-02-03T14:46:43.438Z,-146.14
2023-02-03T14:49:16.984Z,-146.14
2023-02-03T14:52:02.539Z,-146.14
2023-02-03T14:54:46.278Z,-146.14
2023-02-03T14:57:52.408Z,-146.14
2023-02-03T15:00:19.874Z,-146.14
2023-02-03T15:03:12.009Z,-146.14
2023-02-03T15:05:42.976Z,-146.14
2023-02-03T15:08:44.437Z,-146.14
2023-02-03T15:11:33.437Z,-146.14
2023-02-03T15:14:33.275Z,-146.14
2023-02-03T15:17:12.682Z,-146.14
2023-02-03T15:19:42.632Z,-146.14
2023-02-03T15:22:25.091Z,-146.14
2023-02-03T15:25:04.442Z,-146.14
2023-02-03T15:27:33.025Z,-146.14
2023-02-03T15:30:18.364Z,-146.14
2023-02-03T15:33:05.570Z,-146.14
2023-02-03T15:35:36.737Z,-146.14
2023-02-03T15:38:14.221Z,-146.14
2023-02-03T15:40:47.340Z,-146.14
2023-02-03T15:43:20.825Z,-146.14
2023-02-03T15:46:00.412Z,-146.14
2023-02-03T15:48:38.374Z,-146.14
2023-02-03T15:51:08.171Z,-146.14
2023-02-03T15:54:06.550Z,-146.14
2023-02-03T15:56:44.721Z,-146.14
2023-02-03T15:59:35.314Z,-146.14
2023-02-03T16:02:19.554Z,-146.14
2023-02-03T16:04:48.012Z,-146.14
2023-02-03T16:07:25.530Z,-146.14
2023-02-03T16:09:54.962Z,-146.14
2023-02-03T16:12:26.567Z,-146.14
2023-02-03T16:14:55.129Z,-146.14
2023-02-03T16:17:25.313Z,-146.14
2023-02-03T16:20:13.305Z,-146.14
2023-02-03T16:23:00.051Z,-146.14
2023-02-03T16:25:30.699Z,-146.14
2023-02-03T16:28:29.810Z,-146.14
2023-02-03T16:31:17.253Z,-146.14
2023-02-03T16:34:08.384Z,-146.14
2023-02-03T16:36:59.467Z,-146.14
2023-02-03T16:39:45.728Z,-146.14
2023-02-03T16:42:37.347Z,-146.14
2023-02-03T16:45:32.461Z,-146.14
2023-02-03T16:48:19.039Z,-146.14
2023-02-03T16:51:13.012Z,-146.14
2023-02-03T16:53:40.715Z,-146.14
2023-02-03T16:56:07.962Z,-146.14
2023-02-03T16:58:35.714Z,-146.14
2023-02-03T17:01:05.785Z,-146.14
2023-02-03T17:03:37.588Z,-146.14
2023-02-03T17:06:07.505Z,-146.14
2023-02-03T17:08:35.608Z,-146.14
2023-02-03T17:11:18.580Z,-146.14
2023-02-03T17:13:46.966Z,-146.14
2023-02-03T17:16:17.431Z,-146.14
2023-02-03T17:18:48.295Z,-146.14
2023-02-03T17:21:22.216Z,-146.14
2023-02-03T17:23:50.117Z,-146.14
2023-02-03T17:26:17.367Z,-146.14
2023-02-03T17:28:45.362Z,-146.14
2023-02-03T17:31:18.091Z,-146.14
2023-02-03T17:33:46.564Z,-146.14
2023-02-03T17:36:16.558Z,-146.14
2023-02-03T17:55:19.426Z,-146.14
2023-02-03T17:57:46.713Z,-146.14
2023-02-03T18:00:14.608Z,-146.14
2023-02-03T18:02:43.222Z,-146.14
2023-02-03T18:05:11.419Z,-146.14
2023-02-03T18:07:38.677Z,-146.14
2023-02-03T18:10:06.298Z,-146.14
2023-02-03T18:12:33.611Z,-146.14
2023-02-03T18:15:01.249Z,-146.14
2023-02-03T18:17:28.631Z,-146.14
2023-02-03T18:19:56.510Z,-146.14
2023-02-03T18:22:24.161Z,-146.14
2023-02-03T18:24:52.356Z,-146.14
2023-02-03T18:27:20.107Z,-146.14
2023-02-03T18:29:48.432Z,-146.14
2023-02-03T18:32:16.865Z,-146.14
2023-02-03T18:34:44.442Z,-146.14
2023-02-03T18:37:12.355Z,-146.14
2023-02-03T18:39:39.939Z,-146.14
2023-02-03T18:42:07.424Z,-146.14
2023-02-03T18:44:34.959Z,-146.14
2023-02-03T18:47:07.055Z,-146.14
2023-02-03T18:49:36.288Z,-146.14
2023-02-03T18:52:04.370Z,-146.14
2023-02-03T18:54:32.143Z,-146.14
2023-02-03T18:56:59.453Z,-146.14
2023-02-03T18:59:27.099Z,-146.14
2023-02-03T19:01:54.472Z,-146.14
2023-02-03T19:04:22.613Z,-146.14
2023-02-03T19:06:50.129Z,-146.14
2023-02-03T19:09:19.339Z,-146.14
2023-02-03T19:11:46.666Z,-146.14
2023-02-03T19:14:16.426Z,-146.14
2023-02-03T19:16:44.108Z,-146.14
2023-02-03T19:19:14.961Z,-146.14
2023-02-03T19:21:42.253Z,-146.14
2023-02-03T19:24:13.120Z,-146.14
2023-02-03T19:26:40.477Z,-146.14
2023-02-03T19:29:08.033Z,-146.14
2023-02-03T19:31:38.065Z,-146.14
2023-02-03T19:34:05.944Z,-146.14
2023-02-03T19:36:33.224Z,-146.14
2023-02-03T19:39:00.767Z,-146.14
2023-02-03T19:41:28.113Z,-146.14
2023-02-03T19:43:55.772Z,-146.14
2023-02-03T19:46:23.576Z,-146.14
2023-02-03T19:48:51.172Z,-146.14
2023-02-03T19:51:18.507Z,-146.14
2023-02-03T19:53:46.015Z,-146.14
2023-02-03T19:56:13.684Z,-146.14
2023-02-03T19:58:41.408Z,-146.14
2023-02-03T20:01:10.261Z,-146.14
2023-02-03T20:03:37.809Z,-146.14
2023-02-03T20:06:05.368Z,-146.14
2023-02-03T20:08:32.956Z,-146.14
2023-02-03T20:11:00.328Z,-146.14
2023-02-03T20:13:27.898Z,-146.14
2023-02-03T20:15:55.360Z,-146.14
2023-02-03T20:18:23.182Z,-146.14
2023-02-03T20:20:55.353Z,-146.14
2023-02-03T20:23:23.969Z,-146.14
2023-02-03T20:25:55.400Z,-146.14
2023-02-03T20:28:25.503Z,-146.14
2023-02-03T20:30:58.996Z,-146.14
2023-02-03T20:33:28.108Z,-146.14
2023-02-03T20:35:56.640Z,-146.14
2023-02-03T20:38:25.066Z,-146.14
2023-02-03T20:40:52.366Z,-146.14
2023-02-03T20:43:25.160Z,-146.14
2023-02-03T20:45:53.223Z,-146.14
2023-02-03T20:48:22.578Z,-146.14
2023-02-03T20:50:50.400Z,-146.14
2023-02-03T20:53:19.940Z,-146.14
2023-02-03T20:55:48.578Z,-146.14
2023-02-03T20:58:26.280Z,-146.14
2023-02-03T21:00:57.216Z,-146.14
2023-02-03T21:03:44.672Z,-146.14
2023-02-03T21:06:14.804Z,-146.14
2023-02-03T21:08:44.354Z,-146.14
2023-02-03T21:11:26.613Z,-146.14
2023-02-03T21:13:54.286Z,-146.14
2023-02-03T21:16:25.366Z,-146.14
2023-02-03T21:19:02.910Z,-146.14
2023-02-03T21:21:40.298Z,-146.14
2023-02-03T21:24:28.945Z,-146.14
2023-02-03T21:26:57.704Z,-146.14
2023-02-03T21:29:36.877Z,-146.14
2023-02-03T21:32:04.366Z,-146.14
2023-02-03T21:34:33.171Z,-146.14
2023-02-03T21:37:31.322Z,-146.14
2023-02-03T21:39:58.850Z,-146.14
2023-02-03T21:42:42.666Z,-146.14
2023-02-03T21:45:16.911Z,-146.14
2023-02-03T21:47:46.072Z,-146.14
2023-02-03T21:50:36.685Z,-146.14
2023-02-03T21:53:24.024Z,-146.14
2023-02-03T21:55:51.771Z,-146.14
2023-02-03T21:58:26.143Z,-146.14
2023-02-03T22:00:55.920Z,-146.14
2023-02-03T22:03:40.806Z,-146.14
2023-02-03T22:06:08.386Z,-146.14
2023-02-03T22:08:41.171Z,-146.14
2023-02-03T22:11:09.456Z,-146.14
2023-02-03T22:13:36.828Z,-146.14
2023-02-03T22:16:05.075Z,-146.14
2023-02-03T22:18:32.523Z,-146.14
2023-02-03T22:21:00.594Z,-146.14
2023-02-03T22:23:27.848Z,-146.14
2023-02-03T22:25:55.538Z,-146.14
2023-02-03T22:28:22.763Z,-146.14
2023-02-03T22:30:50.451Z,-146.14
2023-02-03T22:33:17.998Z,-146.14
2023-02-03T22:35:45.713Z,-146.14
2023-02-03T22:38:13.040Z,-146.14
2023-02-03T22:40:40.577Z,-146.14
2023-02-03T22:43:07.853Z,-146.14
2023-02-03T22:45:35.442Z,-146.14
2023-02-03T22:48:02.808Z,-146.14
2023-02-03T22:50:35.811Z,-146.14
2023-02-03T22:53:04.507Z,-146.14
2023-02-03T22:55:32.163Z,-146.14
2023-02-03T22:57:59.496Z,-146.14
2023-02-03T23:00:27.118Z,-146.14
2023-02-03T23:02:54.758Z,-146.14
2023-02-03T23:05:23.059Z,-146.14
2023-02-03T23:07:51.018Z,-146.14
2023-02-03T23:10:22.278Z,-146.14
2023-02-03T23:12:50.011Z,-146.14
2023-02-03T23:15:18.420Z,-146.14
2023-02-03T23:17:45.927Z,-146.14
2023-02-03T23:20:15.459Z,-146.14
2023-02-03T23:22:43.751Z,-146.14
2023-02-03T23:25:12.020Z,-146.14
2023-02-03T23:27:39.849Z,-146.14
2023-02-03T23:30:08.611Z,-146.14
2023-02-03T23:32:36.016Z,-146.14
2023-02-03T23:35:22.748Z,-146.14
2023-02-03T23:37:50.084Z,-146.14
2023-02-03T23:40:17.897Z,-146.14
2023-02-03T23:42:45.163Z,-146.14
2023-02-03T23:45:12.838Z,-146.14
2023-02-03T23:47:42.234Z,-146.14
2023-02-03T23:50:12.196Z,-146.14
2023-02-03T23:52:39.568Z,-146.14
2023-02-03T23:55:10.308Z,-146.14
2023-02-03T23:57:38.034Z,-146.14
